sensor_id;sensor_type;location;lat;lon;timestamp;pressure;altitude;pressure_sealevel;temperature;humidity
48644;BME280;34928;37.302;-121.984;2023-10-19T00:02:49;100538.0;;;30.68;28.78
48644;BME280;34928;37.302;-121.984;2023-10-19T00:12:52;100539.0;;;30.81;29.00
48644;BME280;34928;37.302;-121.984;2023-10-19T00:22:58;100544.0;;;30.93;29.04
48644;BME280;34928;37.302;-121.984;2023-10-19T00:33:03;100538.0;;;31.11;28.92
48644;BME280;34928;37.302;-121.984;2023-10-19T00:43:07;100543.0;;;31.24;29.07
48644;BME280;34928;37.302;-121.984;2023-10-19T00:53:13;100546.0;;;31.38;29.10
48644;BME280;34928;37.302;-121.984;2023-10-19T01:03:18;100545.0;;;31.23;29.15
48644;BME280;34928;37.302;-121.984;2023-10-19T01:13:23;100549.0;;;31.55;29.20
48644;BME280;34928;37.302;-121.984;2023-10-19T01:23:27;100548.0;;;31.41;29.29
48644;BME280;34928;37.302;-121.984;2023-10-19T01:33:33;100552.0;;;31.23;29.36
48644;BME280;34928;37.302;-121.984;2023-10-19T01:43:37;100559.0;;;31.61;29.36
48644;BME280;34928;37.302;-121.984;2023-10-19T01:53:43;100566.0;;;31.71;29.48
48644;BME280;34928;37.302;-121.984;2023-10-19T02:03:49;100573.0;;;31.82;28.81
48644;BME280;34928;37.302;-121.984;2023-10-19T02:13:53;100583.0;;;31.57;29.17
48644;BME280;34928;37.302;-121.984;2023-10-19T02:23:58;100588.0;;;31.58;29.27
48644;BME280;34928;37.302;-121.984;2023-10-19T02:34:03;100597.0;;;32.13;28.92
48644;BME280;34928;37.302;-121.984;2023-10-19T02:44:11;100600.0;;;31.66;28.33
48644;BME280;34928;37.302;-121.984;2023-10-19T02:54:19;100612.0;;;31.72;28.66
48644;BME280;34928;37.302;-121.984;2023-10-19T03:04:23;100614.0;;;31.08;27.80
48644;BME280;34928;37.302;-121.984;2023-10-19T03:14:27;100615.0;;;30.65;28.66
48644;BME280;34928;37.302;-121.984;2023-10-19T03:24:33;100626.0;;;30.27;29.25
48644;BME280;34928;37.302;-121.984;2023-10-19T03:34:38;100631.0;;;30.08;29.68
48644;BME280;34928;37.302;-121.984;2023-10-19T03:44:43;100641.0;;;30.51;29.46
48644;BME280;34928;37.302;-121.984;2023-10-19T03:54:48;100640.0;;;31.08;28.71
48644;BME280;34928;37.302;-121.984;2023-10-19T04:04:53;100656.0;;;31.49;28.39
48644;BME280;34928;37.302;-121.984;2023-10-19T04:14:58;100665.0;;;31.18;28.25
48644;BME280;34928;37.302;-121.984;2023-10-19T04:25:03;100670.0;;;31.20;27.91
48644;BME280;34928;37.302;-121.984;2023-10-19T04:35:08;100680.0;;;31.58;27.72
48644;BME280;34928;37.302;-121.984;2023-10-19T04:45:14;100686.0;;;31.58;27.51
48644;BME280;34928;37.302;-121.984;2023-10-19T04:55:18;100696.0;;;31.32;27.44
48644;BME280;34928;37.302;-121.984;2023-10-19T05:05:22;100701.0;;;31.47;27.05
48644;BME280;34928;37.302;-121.984;2023-10-19T05:15:28;100701.0;;;31.24;27.55
48644;BME280;34928;37.302;-121.984;2023-10-19T05:25:32;100702.0;;;30.95;27.44
48644;BME280;34928;37.302;-121.984;2023-10-19T05:35:38;100709.0;;;31.24;27.40
48644;BME280;34928;37.302;-121.984;2023-10-19T05:45:43;100706.0;;;29.60;28.92
48644;BME280;34928;37.302;-121.984;2023-10-19T05:55:48;100716.0;;;27.77;31.35
48644;BME280;34928;37.302;-121.984;2023-10-19T06:05:53;100719.0;;;27.22;32.54
48644;BME280;34928;37.302;-121.984;2023-10-19T06:15:58;100718.0;;;26.91;33.13
48644;BME280;34928;37.302;-121.984;2023-10-19T06:26:09;100720.0;;;28.40;30.83
48644;BME280;34928;37.302;-121.984;2023-10-19T06:36:12;100718.0;;;29.60;29.27
48644;BME280;34928;37.302;-121.984;2023-10-19T06:46:18;100718.0;;;29.88;28.48
48644;BME280;34928;37.302;-121.984;2023-10-19T06:56:23;100720.0;;;29.96;27.83
48644;BME280;34928;37.302;-121.984;2023-10-19T07:06:28;100715.0;;;30.09;27.90
48644;BME280;34928;37.302;-121.984;2023-10-19T07:16:32;100713.0;;;30.10;27.98
48644;BME280;34928;37.302;-121.984;2023-10-19T07:26:38;100713.0;;;30.35;27.60
48644;BME280;34928;37.302;-121.984;2023-10-19T07:36:43;100716.0;;;30.28;27.45
48644;BME280;34928;37.302;-121.984;2023-10-19T07:46:47;100710.0;;;30.27;27.51
48644;BME280;34928;37.302;-121.984;2023-10-19T07:56:54;100715.0;;;30.04;27.67
48644;BME280;34928;37.302;-121.984;2023-10-19T08:06:58;100713.0;;;30.00;27.62
48644;BME280;34928;37.302;-121.984;2023-10-19T08:17:03;100714.0;;;29.85;27.86
48644;BME280;34928;37.302;-121.984;2023-10-19T08:27:08;100709.0;;;29.85;27.79
48644;BME280;34928;37.302;-121.984;2023-10-19T08:37:13;100716.0;;;30.18;27.66
48644;BME280;34928;37.302;-121.984;2023-10-19T08:47:17;100718.0;;;29.78;27.67
48644;BME280;34928;37.302;-121.984;2023-10-19T08:57:23;100720.0;;;29.81;27.96
48644;BME280;34928;37.302;-121.984;2023-10-19T09:07:28;100721.0;;;29.67;27.77
48644;BME280;34928;37.302;-121.984;2023-10-19T09:17:33;100718.0;;;29.79;27.60
48644;BME280;34928;37.302;-121.984;2023-10-19T09:27:38;100723.0;;;29.53;27.69
48644;BME280;34928;37.302;-121.984;2023-10-19T09:37:43;100717.0;;;29.36;27.69
48644;BME280;34928;37.302;-121.984;2023-10-19T09:47:50;100719.0;;;29.46;27.72
48644;BME280;34928;37.302;-121.984;2023-10-19T09:58:02;100718.0;;;29.41;27.71
48644;BME280;34928;37.302;-121.984;2023-10-19T10:18:30;100713.0;;;29.14;27.90
48644;BME280;34928;37.302;-121.984;2023-10-19T10:28:37;100709.0;;;29.08;27.87
48644;BME280;34928;37.302;-121.984;2023-10-19T10:38:43;100695.0;;;29.45;27.68
48644;BME280;34928;37.302;-121.984;2023-10-19T10:48:48;100703.0;;;28.78;27.76
48644;BME280;34928;37.302;-121.984;2023-10-19T10:58:53;100702.0;;;28.85;27.88
48644;BME280;34928;37.302;-121.984;2023-10-19T11:08:57;100695.0;;;28.74;27.86
48644;BME280;34928;37.302;-121.984;2023-10-19T11:19:02;100694.0;;;28.70;27.77
48644;BME280;34928;37.302;-121.984;2023-10-19T11:29:08;100693.0;;;28.71;27.90
48644;BME280;34928;37.302;-121.984;2023-10-19T11:39:13;100695.0;;;28.52;28.07
48644;BME280;34928;37.302;-121.984;2023-10-19T11:49:17;100695.0;;;28.36;28.35
48644;BME280;34928;37.302;-121.984;2023-10-19T11:59:22;100698.0;;;28.29;28.37
48644;BME280;34928;37.302;-121.984;2023-10-19T12:09:27;100701.0;;;28.40;28.13
48644;BME280;34928;37.302;-121.984;2023-10-19T12:19:33;100708.0;;;28.66;27.96
48644;BME280;34928;37.302;-121.984;2023-10-19T12:29:37;100712.0;;;28.26;28.19
48644;BME280;34928;37.302;-121.984;2023-10-19T12:39:43;100713.0;;;28.22;28.38
48644;BME280;34928;37.302;-121.984;2023-10-19T12:49:48;100718.0;;;28.22;28.30
48644;BME280;34928;37.302;-121.984;2023-10-19T12:59:53;100724.0;;;28.14;28.26
48644;BME280;34928;37.302;-121.984;2023-10-19T13:09:57;100729.0;;;28.15;28.20
48644;BME280;34928;37.302;-121.984;2023-10-19T13:20:03;100729.0;;;27.96;28.16
48644;BME280;34928;37.302;-121.984;2023-10-19T13:30:09;100743.0;;;27.92;28.30
48644;BME280;34928;37.302;-121.984;2023-10-19T13:40:14;100745.0;;;27.84;28.07
48644;BME280;34928;37.302;-121.984;2023-10-19T13:50:18;100750.0;;;27.85;27.67
48644;BME280;34928;37.302;-121.984;2023-10-19T14:00:23;100760.0;;;27.67;27.87
48644;BME280;34928;37.302;-121.984;2023-10-19T14:10:27;100763.0;;;27.60;27.86
48644;BME280;34928;37.302;-121.984;2023-10-19T14:20:32;100761.0;;;27.59;28.12
48644;BME280;34928;37.302;-121.984;2023-10-19T14:30:37;100764.0;;;27.74;28.10
48644;BME280;34928;37.302;-121.984;2023-10-19T14:40:43;100773.0;;;27.58;28.29
48644;BME280;34928;37.302;-121.984;2023-10-19T14:50:48;100780.0;;;27.54;29.91
48644;BME280;34928;37.302;-121.984;2023-10-19T15:00:53;100783.0;;;27.60;29.32
48644;BME280;34928;37.302;-121.984;2023-10-19T15:10:58;100796.0;;;28.12;29.00
48644;BME280;34928;37.302;-121.984;2023-10-19T15:21:07;100805.0;;;27.97;28.57
48644;BME280;34928;37.302;-121.984;2023-10-19T15:31:12;100809.0;;;28.19;28.57
48644;BME280;34928;37.302;-121.984;2023-10-19T15:41:17;100818.0;;;28.18;28.42
48644;BME280;34928;37.302;-121.984;2023-10-19T15:51:23;100823.0;;;27.80;28.59
48644;BME280;34928;37.302;-121.984;2023-10-19T16:01:28;100829.0;;;28.02;28.61
48644;BME280;34928;37.302;-121.984;2023-10-19T16:11:32;100832.0;;;27.87;28.67
48644;BME280;34928;37.302;-121.984;2023-10-19T16:21:37;100832.0;;;28.10;28.64
48644;BME280;34928;37.302;-121.984;2023-10-19T16:31:43;100836.0;;;28.14;28.67
48644;BME280;34928;37.302;-121.984;2023-10-19T16:41:48;100832.0;;;27.70;28.70
48644;BME280;34928;37.302;-121.984;2023-10-19T16:51:53;100843.0;;;28.01;28.81
48644;BME280;34928;37.302;-121.984;2023-10-19T17:01:58;100850.0;;;28.08;28.79
48644;BME280;34928;37.302;-121.984;2023-10-19T17:12:02;100846.0;;;27.90;29.02
48644;BME280;34928;37.302;-121.984;2023-10-19T17:22:08;100847.0;;;27.99;29.14
48644;BME280;34928;37.302;-121.984;2023-10-19T17:32:13;100844.0;;;28.29;29.35
48644;BME280;34928;37.302;-121.984;2023-10-19T17:42:18;100836.0;;;28.34;29.39
48644;BME280;34928;37.302;-121.984;2023-10-19T17:52:23;100823.0;;;28.18;29.46
48644;BME280;34928;37.302;-121.984;2023-10-19T18:02:27;100822.0;;;28.20;29.70
48644;BME280;34928;37.302;-121.984;2023-10-19T18:12:32;100818.0;;;28.31;29.92
48644;BME280;34928;37.302;-121.984;2023-10-19T18:22:37;100813.0;;;28.43;29.85
48644;BME280;34928;37.302;-121.984;2023-10-19T18:32:42;100810.0;;;28.53;29.90
48644;BME280;34928;37.302;-121.984;2023-10-19T18:42:48;100802.0;;;28.59;29.61
48644;BME280;34928;37.302;-121.984;2023-10-19T18:52:53;100797.0;;;28.70;29.17
48644;BME280;34928;37.302;-121.984;2023-10-19T19:02:58;100793.0;;;28.79;29.11
48644;BME280;34928;37.302;-121.984;2023-10-19T19:13:03;100779.0;;;28.90;28.85
48644;BME280;34928;37.302;-121.984;2023-10-19T19:23:08;100775.0;;;28.95;28.52
48644;BME280;34928;37.302;-121.984;2023-10-19T19:33:13;100764.0;;;28.81;28.21
48644;BME280;34928;37.302;-121.984;2023-10-19T19:43:17;100744.0;;;28.66;28.24
48644;BME280;34928;37.302;-121.984;2023-10-19T19:53:23;100729.0;;;29.21;28.41
48644;BME280;34928;37.302;-121.984;2023-10-19T20:03:27;100710.0;;;29.08;28.59
48644;BME280;34928;37.302;-121.984;2023-10-19T20:13:33;100692.0;;;28.96;28.73
48644;BME280;34928;37.302;-121.984;2023-10-19T20:23:38;100672.0;;;29.50;28.75
48644;BME280;34928;37.302;-121.984;2023-10-19T20:33:43;100654.0;;;29.39;28.92
48644;BME280;34928;37.302;-121.984;2023-10-19T20:43:48;100634.0;;;29.30;28.99
48644;BME280;34928;37.302;-121.984;2023-10-19T20:53:52;100620.0;;;29.45;29.26
48644;BME280;34928;37.302;-121.984;2023-10-19T21:03:58;100608.0;;;29.59;29.41
48644;BME280;34928;37.302;-121.984;2023-10-19T21:14:03;100600.0;;;29.43;29.54
48644;BME280;34928;37.302;-121.984;2023-10-19T21:24:08;100589.0;;;29.87;29.44
48644;BME280;34928;37.302;-121.984;2023-10-19T21:34:12;100584.0;;;29.75;29.49
48644;BME280;34928;37.302;-121.984;2023-10-19T21:44:18;100573.0;;;30.13;29.32
48644;BME280;34928;37.302;-121.984;2023-10-19T21:54:23;100555.0;;;30.24;29.14
48644;BME280;34928;37.302;-121.984;2023-10-19T22:04:28;100545.0;;;30.15;28.89
48644;BME280;34928;37.302;-121.984;2023-10-19T22:14:33;100536.0;;;30.06;28.70
48644;BME280;34928;37.302;-121.984;2023-10-19T22:24:37;100526.0;;;30.21;28.80
48644;BME280;34928;37.302;-121.984;2023-10-19T22:34:43;100522.0;;;30.61;28.76
48644;BME280;34928;37.302;-121.984;2023-10-19T22:44:48;100516.0;;;30.53;28.94
48644;BME280;34928;37.302;-121.984;2023-10-19T22:54:53;100512.0;;;30.68;29.05
48644;BME280;34928;37.302;-121.984;2023-10-19T23:04:57;100504.0;;;30.84;29.15
48644;BME280;34928;37.302;-121.984;2023-10-19T23:15:03;100487.0;;;30.99;29.25
48644;BME280;34928;37.302;-121.984;2023-10-19T23:25:08;100484.0;;;30.93;29.26
48644;BME280;34928;37.302;-121.984;2023-10-19T23:35:13;100478.0;;;31.33;29.12
48644;BME280;34928;37.302;-121.984;2023-10-19T23:45:18;100472.0;;;31.27;29.19
48644;BME280;34928;37.302;-121.984;2023-10-19T23:55:22;100474.0;;;31.66;29.01
